sensor_id;sensor_type;location;lat;lon;timestamp;P1;durP1;ratioP1;P2;durP2;ratioP2
9661;SDS011;24982;52.344;12.990;2023-09-07T00:01:57;5.72;;;5.28;;
9661;SDS011;24982;52.344;12.990;2023-09-07T00:05:00;5.32;;;4.82;;
9661;SDS011;24982;52.344;12.990;2023-09-07T00:08:03;5.78;;;5.28;;
9661;SDS011;24982;52.344;12.990;2023-09-07T00:11:06;5.60;;;5.20;;
9661;SDS011;24982;52.344;12.990;2023-09-07T00:14:09;5.50;;;5.10;;
9661;SDS011;24982;52.344;12.990;2023-09-07T00:17:11;5.70;;;5.30;;
9661;SDS011;24982;52.344;12.990;2023-09-07T00:20:15;5.60;;;5.10;;
9661;SDS011;24982;52.344;12.990;2023-09-07T00:23:19;5.90;;;5.32;;
9661;SDS011;24982;52.344;12.990;2023-09-07T00:26:21;5.38;;;4.97;;
9661;SDS011;24982;52.344;12.990;2023-09-07T00:29:23;5.60;;;5.25;;
9661;SDS011;24982;52.344;12.990;2023-09-07T00:32:25;5.63;;;5.22;;
9661;SDS011;24982;52.344;12.990;2023-09-07T00:35:28;5.47;;;5.07;;
9661;SDS011;24982;52.344;12.990;2023-09-07T00:38:30;5.75;;;5.35;;
9661;SDS011;24982;52.344;12.990;2023-09-07T00:41:32;5.65;;;5.07;;
9661;SDS011;24982;52.344;12.990;2023-09-07T00:44:34;5.55;;;5.10;;
9661;SDS011;24982;52.344;12.990;2023-09-07T00:47:36;5.78;;;5.18;;
9661;SDS011;24982;52.344;12.990;2023-09-07T00:50:40;6.32;;;5.80;;
9661;SDS011;24982;52.344;12.990;2023-09-07T00:53:42;5.78;;;5.38;;
9661;SDS011;24982;52.344;12.990;2023-09-07T00:56:44;6.32;;;5.72;;
9661;SDS011;24982;52.344;12.990;2023-09-07T00:59:46;5.72;;;5.25;;
9661;SDS011;24982;52.344;12.990;2023-09-07T01:02:48;5.93;;;5.43;;
9661;SDS011;24982;52.344;12.990;2023-09-07T01:05:52;5.85;;;5.35;;
9661;SDS011;24982;52.344;12.990;2023-09-07T01:09:01;5.40;;;5.00;;
9661;SDS011;24982;52.344;12.990;2023-09-07T01:12:08;5.95;;;5.45;;
9661;SDS011;24982;52.344;12.990;2023-09-07T01:15:15;6.07;;;5.57;;
9661;SDS011;24982;52.344;12.990;2023-09-07T01:18:17;5.63;;;5.22;;
9661;SDS011;24982;52.344;12.990;2023-09-07T01:21:22;6.00;;;5.40;;
9661;SDS011;24982;52.344;12.990;2023-09-07T01:24:26;5.90;;;5.40;;
9661;SDS011;24982;52.344;12.990;2023-09-07T01:27:30;5.95;;;5.45;;
9661;SDS011;24982;52.344;12.990;2023-09-07T01:30:34;6.05;;;5.50;;
9661;SDS011;24982;52.344;12.990;2023-09-07T01:33:37;6.40;;;5.90;;
9661;SDS011;24982;52.344;12.990;2023-09-07T01:36:39;6.13;;;5.63;;
9661;SDS011;24982;52.344;12.990;2023-09-07T01:39:43;6.53;;;5.93;;
9661;SDS011;24982;52.344;12.990;2023-09-07T01:42:44;6.00;;;5.55;;
9661;SDS011;24982;52.344;12.990;2023-09-07T01:45:46;5.78;;;5.38;;
9661;SDS011;24982;52.344;12.990;2023-09-07T01:48:48;5.57;;;5.20;;
9661;SDS011;24982;52.344;12.990;2023-09-07T01:51:51;5.97;;;5.57;;
9661;SDS011;24982;52.344;12.990;2023-09-07T02:03:46;6.13;;;5.53;;
9661;SDS011;24982;52.344;12.990;2023-09-07T02:06:50;5.85;;;5.28;;
9661;SDS011;24982;52.344;12.990;2023-09-07T02:09:52;6.15;;;5.65;;
9661;SDS011;24982;52.344;12.990;2023-09-07T02:17:16;5.50;;;5.10;;
9661;SDS011;24982;52.344;12.990;2023-09-07T02:20:20;5.75;;;5.15;;
9661;SDS011;24982;52.344;12.990;2023-09-07T02:23:22;6.68;;;5.45;;
9661;SDS011;24982;52.344;12.990;2023-09-07T02:26:24;5.88;;;5.40;;
9661;SDS011;24982;52.344;12.990;2023-09-07T02:33:49;5.65;;;5.25;;
9661;SDS011;24982;52.344;12.990;2023-09-07T02:36:52;6.03;;;5.53;;
9661;SDS011;24982;52.344;12.990;2023-09-07T02:39:54;5.80;;;5.22;;
9661;SDS011;24982;52.344;12.990;2023-09-07T02:42:56;5.70;;;5.28;;
9661;SDS011;24982;52.344;12.990;2023-09-07T02:45:58;5.93;;;5.50;;
9661;SDS011;24982;52.344;12.990;2023-09-07T02:49:00;5.50;;;5.10;;
9661;SDS011;24982;52.344;12.990;2023-09-07T02:52:05;6.63;;;6.03;;
9661;SDS011;24982;52.344;12.990;2023-09-07T02:55:07;6.28;;;5.68;;
9661;SDS011;24982;52.344;12.990;2023-09-07T02:58:10;6.00;;;5.50;;
9661;SDS011;24982;52.344;12.990;2023-09-07T03:01:13;5.88;;;5.47;;
9661;SDS011;24982;52.344;12.990;2023-09-07T03:04:15;6.13;;;5.63;;
9661;SDS011;24982;52.344;12.990;2023-09-07T03:07:18;6.05;;;5.63;;
9661;SDS011;24982;52.344;12.990;2023-09-07T03:10:20;6.07;;;5.47;;
9661;SDS011;24982;52.344;12.990;2023-09-07T03:13:22;7.38;;;6.53;;
9661;SDS011;24982;52.344;12.990;2023-09-07T03:16:24;6.55;;;6.00;;
9661;SDS011;24982;52.344;12.990;2023-09-07T03:19:26;6.85;;;6.15;;
9661;SDS011;24982;52.344;12.990;2023-09-07T03:22:30;7.28;;;6.65;;
9661;SDS011;24982;52.344;12.990;2023-09-07T03:25:32;6.90;;;6.30;;
9661;SDS011;24982;52.344;12.990;2023-09-07T03:28:34;7.18;;;6.35;;
9661;SDS011;24982;52.344;12.990;2023-09-07T03:31:37;7.07;;;6.38;;
9661;SDS011;24982;52.344;12.990;2023-09-07T03:34:39;7.32;;;6.70;;
9661;SDS011;24982;52.344;12.990;2023-09-07T03:37:43;7.78;;;7.07;;
9661;SDS011;24982;52.344;12.990;2023-09-07T03:40:45;7.22;;;6.57;;
9661;SDS011;24982;52.344;12.990;2023-09-07T03:43:47;7.30;;;6.50;;
9661;SDS011;24982;52.344;12.990;2023-09-07T03:46:49;6.50;;;6.00;;
9661;SDS011;24982;52.344;12.990;2023-09-07T03:49:52;9.10;;;6.03;;
9661;SDS011;24982;52.344;12.990;2023-09-07T03:52:55;7.40;;;6.50;;
9661;SDS011;24982;52.344;12.990;2023-09-07T03:55:57;6.70;;;6.10;;
9661;SDS011;24982;52.344;12.990;2023-09-07T03:59:00;7.40;;;6.70;;
9661;SDS011;24982;52.344;12.990;2023-09-07T04:02:03;7.60;;;6.90;;
9661;SDS011;24982;52.344;12.990;2023-09-07T04:05:06;7.18;;;6.57;;
9661;SDS011;24982;52.344;12.990;2023-09-07T04:08:09;7.30;;;6.63;;
9661;SDS011;24982;52.344;12.990;2023-09-07T04:11:11;7.68;;;7.03;;
9661;SDS011;24982;52.344;12.990;2023-09-07T04:14:14;7.63;;;6.82;;
9661;SDS011;24982;52.344;12.990;2023-09-07T04:17:16;7.47;;;6.88;;
9661;SDS011;24982;52.344;12.990;2023-09-07T04:20:18;7.72;;;6.93;;
9661;SDS011;24982;52.344;12.990;2023-09-07T04:23:21;7.45;;;6.80;;
9661;SDS011;24982;52.344;12.990;2023-09-07T04:26:24;7.32;;;6.63;;
9661;SDS011;24982;52.344;12.990;2023-09-07T04:29:26;6.95;;;6.38;;
9661;SDS011;24982;52.344;12.990;2023-09-07T04:32:28;7.20;;;6.60;;
9661;SDS011;24982;52.344;12.990;2023-09-07T04:35:30;7.18;;;6.57;;
9661;SDS011;24982;52.344;12.990;2023-09-07T04:38:35;6.85;;;6.35;;
9661;SDS011;24982;52.344;12.990;2023-09-07T04:41:37;7.72;;;7.03;;
9661;SDS011;24982;52.344;12.990;2023-09-07T04:44:39;7.45;;;6.65;;
9661;SDS011;24982;52.344;12.990;2023-09-07T04:47:41;7.50;;;6.72;;
9661;SDS011;24982;52.344;12.990;2023-09-07T04:50:43;8.10;;;7.30;;
9661;SDS011;24982;52.344;12.990;2023-09-07T04:53:47;8.50;;;7.70;;
9661;SDS011;24982;52.344;12.990;2023-09-07T04:56:49;8.02;;;6.90;;
9661;SDS011;24982;52.344;12.990;2023-09-07T04:59:52;10.18;;;7.47;;
9661;SDS011;24982;52.344;12.990;2023-09-07T05:02:54;9.40;;;7.15;;
9661;SDS011;24982;52.344;12.990;2023-09-07T05:05:56;8.40;;;7.43;;
9661;SDS011;24982;52.344;12.990;2023-09-07T05:08:59;10.25;;;8.05;;
9661;SDS011;24982;52.344;12.990;2023-09-07T05:12:01;7.82;;;7.13;;
9661;SDS011;24982;52.344;12.990;2023-09-07T05:15:04;7.68;;;6.93;;
9661;SDS011;24982;52.344;12.990;2023-09-07T05:18:08;8.02;;;7.32;;
9661;SDS011;24982;52.344;12.990;2023-09-07T05:21:10;8.40;;;7.60;;
9661;SDS011;24982;52.344;12.990;2023-09-07T05:24:14;11.25;;;9.15;;
9661;SDS011;24982;52.344;12.990;2023-09-07T05:27:16;9.70;;;8.70;;
9661;SDS011;24982;52.344;12.990;2023-09-07T05:30:19;10.75;;;8.73;;
9661;SDS011;24982;52.344;12.990;2023-09-07T05:33:21;10.00;;;9.00;;
9661;SDS011;24982;52.344;12.990;2023-09-07T05:36:24;9.77;;;8.60;;
9661;SDS011;24982;52.344;12.990;2023-09-07T05:39:28;9.07;;;8.25;;
9661;SDS011;24982;52.344;12.990;2023-09-07T05:42:31;9.38;;;8.48;;
9661;SDS011;24982;52.344;12.990;2023-09-07T05:45:34;9.23;;;8.32;;
9661;SDS011;24982;52.344;12.990;2023-09-07T05:48:37;10.43;;;7.95;;
9661;SDS011;24982;52.344;12.990;2023-09-07T05:51:42;9.93;;;8.27;;
9661;SDS011;24982;52.344;12.990;2023-09-07T05:54:45;8.80;;;8.00;;
9661;SDS011;24982;52.344;12.990;2023-09-07T05:57:48;9.80;;;8.80;;
9661;SDS011;24982;52.344;12.990;2023-09-07T06:00:50;9.82;;;8.85;;
9661;SDS011;24982;52.344;12.990;2023-09-07T06:03:53;8.57;;;7.78;;
9661;SDS011;24982;52.344;12.990;2023-09-07T06:06:55;9.38;;;8.40;;
9661;SDS011;24982;52.344;12.990;2023-09-07T06:09:59;8.95;;;8.05;;
9661;SDS011;24982;52.344;12.990;2023-09-07T06:13:01;8.38;;;7.68;;
9661;SDS011;24982;52.344;12.990;2023-09-07T06:16:03;8.73;;;7.88;;
9661;SDS011;24982;52.344;12.990;2023-09-07T06:19:05;8.88;;;7.88;;
9661;SDS011;24982;52.344;12.990;2023-09-07T06:22:08;8.43;;;7.63;;
9661;SDS011;24982;52.344;12.990;2023-09-07T06:25:11;9.77;;;7.57;;
9661;SDS011;24982;52.344;12.990;2023-09-07T06:28:14;7.20;;;6.70;;
9661;SDS011;24982;52.344;12.990;2023-09-07T06:31:16;9.38;;;7.68;;
9661;SDS011;24982;52.344;12.990;2023-09-07T06:34:18;7.93;;;7.22;;
9661;SDS011;24982;52.344;12.990;2023-09-07T06:37:20;8.50;;;7.45;;
9661;SDS011;24982;52.344;12.990;2023-09-07T06:40:26;7.93;;;7.13;;
9661;SDS011;24982;52.344;12.990;2023-09-07T06:43:30;7.95;;;7.25;;
9661;SDS011;24982;52.344;12.990;2023-09-07T06:46:33;7.72;;;6.97;;
9661;SDS011;24982;52.344;12.990;2023-09-07T06:49:37;7.05;;;6.55;;
9661;SDS011;24982;52.344;12.990;2023-09-07T06:52:39;6.97;;;6.38;;
9661;SDS011;24982;52.344;12.990;2023-09-07T06:55:43;7.78;;;7.07;;
9661;SDS011;24982;52.344;12.990;2023-09-07T06:58:46;8.45;;;7.50;;
9661;SDS011;24982;52.344;12.990;2023-09-07T07:01:48;7.93;;;6.47;;
9661;SDS011;24982;52.344;12.990;2023-09-07T07:04:50;8.23;;;7.43;;
9661;SDS011;24982;52.344;12.990;2023-09-07T07:07:53;7.88;;;7.07;;
9661;SDS011;24982;52.344;12.990;2023-09-07T07:10:56;8.00;;;7.20;;
9661;SDS011;24982;52.344;12.990;2023-09-07T07:13:59;8.23;;;7.53;;
9661;SDS011;24982;52.344;12.990;2023-09-07T07:17:01;8.13;;;7.20;;
9661;SDS011;24982;52.344;12.990;2023-09-07T07:20:06;7.90;;;6.75;;
9661;SDS011;24982;52.344;12.990;2023-09-07T07:23:09;7.38;;;6.78;;
9661;SDS011;24982;52.344;12.990;2023-09-07T07:26:12;7.68;;;6.97;;
9661;SDS011;24982;52.344;12.990;2023-09-07T07:29:14;7.30;;;6.60;;
9661;SDS011;24982;52.344;12.990;2023-09-07T07:32:16;7.40;;;6.70;;
9661;SDS011;24982;52.344;12.990;2023-09-07T07:35:19;6.30;;;5.78;;
9661;SDS011;24982;52.344;12.990;2023-09-07T07:38:21;8.18;;;6.55;;
9661;SDS011;24982;52.344;12.990;2023-09-07T07:41:24;8.27;;;6.45;;
9661;SDS011;24982;52.344;12.990;2023-09-07T07:44:27;6.72;;;6.13;;
9661;SDS011;24982;52.344;12.990;2023-09-07T07:47:29;7.65;;;6.28;;
9661;SDS011;24982;52.344;12.990;2023-09-07T07:50:31;6.60;;;6.10;;
9661;SDS011;24982;52.344;12.990;2023-09-07T07:53:33;6.25;;;5.68;;
9661;SDS011;24982;52.344;12.990;2023-09-07T07:56:38;7.50;;;6.13;;
9661;SDS011;24982;52.344;12.990;2023-09-07T07:59:40;8.43;;;5.68;;
9661;SDS011;24982;52.344;12.990;2023-09-07T08:02:43;6.28;;;5.75;;
9661;SDS011;24982;52.344;12.990;2023-09-07T08:05:46;6.53;;;6.03;;
9661;SDS011;24982;52.344;12.990;2023-09-07T08:08:49;6.03;;;5.47;;
9661;SDS011;24982;52.344;12.990;2023-09-07T08:11:52;6.43;;;5.90;;
9661;SDS011;24982;52.344;12.990;2023-09-07T08:14:56;6.97;;;6.05;;
9661;SDS011;24982;52.344;12.990;2023-09-07T08:17:58;5.85;;;5.38;;
9661;SDS011;24982;52.344;12.990;2023-09-07T08:21:00;6.60;;;6.00;;
9661;SDS011;24982;52.344;12.990;2023-09-07T08:24:03;6.95;;;5.78;;
9661;SDS011;24982;52.344;12.990;2023-09-07T08:27:07;6.63;;;5.95;;
9661;SDS011;24982;52.344;12.990;2023-09-07T08:30:10;6.00;;;5.50;;
9661;SDS011;24982;52.344;12.990;2023-09-07T08:33:14;5.93;;;5.43;;
9661;SDS011;24982;52.344;12.990;2023-09-07T08:36:15;5.53;;;5.03;;
9661;SDS011;24982;52.344;12.990;2023-09-07T08:39:18;5.93;;;5.43;;
9661;SDS011;24982;52.344;12.990;2023-09-07T08:42:22;6.30;;;5.70;;
9661;SDS011;24982;52.344;12.990;2023-09-07T08:45:25;6.28;;;5.50;;
9661;SDS011;24982;52.344;12.990;2023-09-07T08:48:30;5.57;;;5.07;;
9661;SDS011;24982;52.344;12.990;2023-09-07T08:51:33;5.75;;;5.25;;
9661;SDS011;24982;52.344;12.990;2023-09-07T08:54:37;6.28;;;5.10;;
9661;SDS011;24982;52.344;12.990;2023-09-07T08:57:41;5.68;;;5.20;;
9661;SDS011;24982;52.344;12.990;2023-09-07T09:00:43;7.47;;;5.03;;
9661;SDS011;24982;52.344;12.990;2023-09-07T09:03:45;6.13;;;5.53;;
9661;SDS011;24982;52.344;12.990;2023-09-07T09:06:47;6.20;;;5.38;;
9661;SDS011;24982;52.344;12.990;2023-09-07T09:09:49;5.60;;;5.00;;
9661;SDS011;24982;52.344;12.990;2023-09-07T09:12:52;5.22;;;4.82;;
9661;SDS011;24982;52.344;12.990;2023-09-07T09:15:54;5.13;;;4.68;;
9661;SDS011;24982;52.344;12.990;2023-09-07T09:18:57;6.97;;;5.03;;
9661;SDS011;24982;52.344;12.990;2023-09-07T09:21:59;5.88;;;5.38;;
9661;SDS011;24982;52.344;12.990;2023-09-07T09:25:02;6.30;;;4.65;;
9661;SDS011;24982;52.344;12.990;2023-09-07T09:28:08;5.03;;;4.63;;
9661;SDS011;24982;52.344;12.990;2023-09-07T09:31:10;5.63;;;5.13;;
9661;SDS011;24982;52.344;12.990;2023-09-07T09:34:13;5.82;;;4.97;;
9661;SDS011;24982;52.344;12.990;2023-09-07T09:37:15;6.15;;;5.00;;
9661;SDS011;24982;52.344;12.990;2023-09-07T09:40:19;5.97;;;4.78;;
9661;SDS011;24982;52.344;12.990;2023-09-07T09:43:23;5.28;;;4.78;;
9661;SDS011;24982;52.344;12.990;2023-09-07T09:46:26;5.03;;;4.63;;
9661;SDS011;24982;52.344;12.990;2023-09-07T09:49:30;5.97;;;4.90;;
9661;SDS011;24982;52.344;12.990;2023-09-07T09:52:33;5.25;;;4.75;;
9661;SDS011;24982;52.344;12.990;2023-09-07T09:55:36;5.53;;;4.85;;
9661;SDS011;24982;52.344;12.990;2023-09-07T09:58:40;5.05;;;4.65;;
9661;SDS011;24982;52.344;12.990;2023-09-07T10:01:43;5.00;;;4.60;;
9661;SDS011;24982;52.344;12.990;2023-09-07T10:04:46;5.50;;;5.10;;
9661;SDS011;24982;52.344;12.990;2023-09-07T10:07:49;5.50;;;4.97;;
9661;SDS011;24982;52.344;12.990;2023-09-07T10:10:52;5.00;;;4.50;;
9661;SDS011;24982;52.344;12.990;2023-09-07T10:13:58;5.88;;;4.75;;
9661;SDS011;24982;52.344;12.990;2023-09-07T10:17:00;5.45;;;4.95;;
9661;SDS011;24982;52.344;12.990;2023-09-07T10:20:04;5.57;;;4.70;;
9661;SDS011;24982;52.344;12.990;2023-09-07T10:23:07;5.03;;;4.47;;
9661;SDS011;24982;52.344;12.990;2023-09-07T10:26:12;5.28;;;4.63;;
9661;SDS011;24982;52.344;12.990;2023-09-07T10:29:16;5.60;;;5.10;;
9661;SDS011;24982;52.344;12.990;2023-09-07T10:32:19;5.30;;;4.88;;
9661;SDS011;24982;52.344;12.990;2023-09-07T10:35:21;4.95;;;4.50;;
9661;SDS011;24982;52.344;12.990;2023-09-07T10:38:25;5.22;;;4.72;;
9661;SDS011;24982;52.344;12.990;2023-09-07T10:41:27;5.60;;;5.10;;
9661;SDS011;24982;52.344;12.990;2023-09-07T10:44:30;6.38;;;4.65;;
9661;SDS011;24982;52.344;12.990;2023-09-07T10:47:33;5.07;;;4.68;;
9661;SDS011;24982;52.344;12.990;2023-09-07T10:50:42;6.93;;;4.60;;
9661;SDS011;24982;52.344;12.990;2023-09-07T10:53:45;5.22;;;4.70;;
9661;SDS011;24982;52.344;12.990;2023-09-07T10:56:48;4.97;;;4.50;;
9661;SDS011;24982;52.344;12.990;2023-09-07T10:59:52;4.80;;;4.43;;
9661;SDS011;24982;52.344;12.990;2023-09-07T11:02:56;5.05;;;4.22;;
9661;SDS011;24982;52.344;12.990;2023-09-07T11:05:59;4.90;;;4.10;;
9661;SDS011;24982;52.344;12.990;2023-09-07T11:09:03;4.95;;;4.53;;
9661;SDS011;24982;52.344;12.990;2023-09-07T11:12:11;4.43;;;4.05;;
9661;SDS011;24982;52.344;12.990;2023-09-07T11:15:15;4.90;;;4.50;;
9661;SDS011;24982;52.344;12.990;2023-09-07T11:18:19;4.50;;;4.10;;
9661;SDS011;24982;52.344;12.990;2023-09-07T11:21:22;4.53;;;3.90;;
9661;SDS011;24982;52.344;12.990;2023-09-07T11:24:25;4.07;;;3.78;;
9661;SDS011;24982;52.344;12.990;2023-09-07T11:27:28;4.45;;;3.95;;
9661;SDS011;24982;52.344;12.990;2023-09-07T11:30:32;4.20;;;3.90;;
9661;SDS011;24982;52.344;12.990;2023-09-07T11:33:34;4.32;;;4.00;;
9661;SDS011;24982;52.344;12.990;2023-09-07T11:36:36;4.72;;;3.90;;
9661;SDS011;24982;52.344;12.990;2023-09-07T11:39:38;5.07;;;4.25;;
9661;SDS011;24982;52.344;12.990;2023-09-07T11:42:40;4.40;;;4.00;;
9661;SDS011;24982;52.344;12.990;2023-09-07T11:45:44;4.10;;;3.80;;
9661;SDS011;24982;52.344;12.990;2023-09-07T11:48:47;4.15;;;3.85;;
9661;SDS011;24982;52.344;12.990;2023-09-07T11:51:48;4.30;;;4.00;;
9661;SDS011;24982;52.344;12.990;2023-09-07T11:54:50;4.55;;;4.25;;
9661;SDS011;24982;52.344;12.990;2023-09-07T11:57:52;4.90;;;4.40;;
9661;SDS011;24982;52.344;12.990;2023-09-07T12:00:55;4.38;;;4.07;;
9661;SDS011;24982;52.344;12.990;2023-09-07T12:03:57;4.53;;;3.97;;
9661;SDS011;24982;52.344;12.990;2023-09-07T12:06:59;4.07;;;3.78;;
9661;SDS011;24982;52.344;12.990;2023-09-07T12:10:01;5.70;;;3.90;;
9661;SDS011;24982;52.344;12.990;2023-09-07T12:13:04;4.13;;;3.83;;
9661;SDS011;24982;52.344;12.990;2023-09-07T12:16:07;4.72;;;4.18;;
9661;SDS011;24982;52.344;12.990;2023-09-07T12:19:16;4.72;;;4.32;;
9661;SDS011;24982;52.344;12.990;2023-09-07T12:22:18;4.28;;;3.97;;
9661;SDS011;24982;52.344;12.990;2023-09-07T12:25:20;4.68;;;4.28;;
9661;SDS011;24982;52.344;12.990;2023-09-07T12:28:22;4.70;;;4.30;;
9661;SDS011;24982;52.344;12.990;2023-09-07T12:31:25;6.28;;;3.85;;
9661;SDS011;24982;52.344;12.990;2023-09-07T12:34:27;4.05;;;3.55;;
9661;SDS011;24982;52.344;12.990;2023-09-07T12:37:29;4.45;;;4.10;;
9661;SDS011;24982;52.344;12.990;2023-09-07T12:40:31;4.30;;;4.00;;
9661;SDS011;24982;52.344;12.990;2023-09-07T12:43:33;4.53;;;4.22;;
9661;SDS011;24982;52.344;12.990;2023-09-07T12:46:36;4.60;;;4.20;;
9661;SDS011;24982;52.344;12.990;2023-09-07T12:49:38;4.72;;;3.53;;
9661;SDS011;24982;52.344;12.990;2023-09-07T12:52:40;4.35;;;4.05;;
9661;SDS011;24982;52.344;12.990;2023-09-07T12:55:42;4.20;;;3.90;;
9661;SDS011;24982;52.344;12.990;2023-09-07T12:58:44;4.30;;;3.90;;
9661;SDS011;24982;52.344;12.990;2023-09-07T13:01:47;4.13;;;3.70;;
9661;SDS011;24982;52.344;12.990;2023-09-07T13:04:49;4.00;;;3.70;;
9661;SDS011;24982;52.344;12.990;2023-09-07T13:07:51;3.97;;;3.58;;
9661;SDS011;24982;52.344;12.990;2023-09-07T13:10:54;4.10;;;3.72;;
9661;SDS011;24982;52.344;12.990;2023-09-07T13:13:57;4.80;;;4.05;;
9661;SDS011;24982;52.344;12.990;2023-09-07T13:17:00;4.05;;;3.70;;
9661;SDS011;24982;52.344;12.990;2023-09-07T13:20:02;4.20;;;3.80;;
9661;SDS011;24982;52.344;12.990;2023-09-07T13:23:04;4.82;;;3.88;;
9661;SDS011;24982;52.344;12.990;2023-09-07T13:26:06;3.95;;;3.70;;
9661;SDS011;24982;52.344;12.990;2023-09-07T13:29:08;4.25;;;3.85;;
9661;SDS011;24982;52.344;12.990;2023-09-07T13:32:12;4.32;;;4.03;;
9661;SDS011;24982;52.344;12.990;2023-09-07T13:35:14;4.45;;;4.05;;
9661;SDS011;24982;52.344;12.990;2023-09-07T13:38:16;4.65;;;3.88;;
9661;SDS011;24982;52.344;12.990;2023-09-07T13:41:18;5.68;;;3.78;;
9661;SDS011;24982;52.344;12.990;2023-09-07T13:44:20;4.35;;;3.80;;
9661;SDS011;24982;52.344;12.990;2023-09-07T13:47:24;3.95;;;3.67;;
9661;SDS011;24982;52.344;12.990;2023-09-07T13:50:26;4.15;;;3.95;;
9661;SDS011;24982;52.344;12.990;2023-09-07T13:53:29;4.80;;;4.38;;
9661;SDS011;24982;52.344;12.990;2023-09-07T13:56:31;4.10;;;3.80;;
9661;SDS011;24982;52.344;12.990;2023-09-07T13:59:33;4.68;;;4.30;;
9661;SDS011;24982;52.344;12.990;2023-09-07T14:02:37;4.78;;;4.47;;
9661;SDS011;24982;52.344;12.990;2023-09-07T14:05:39;3.90;;;3.70;;
9661;SDS011;24982;52.344;12.990;2023-09-07T14:08:41;4.30;;;4.00;;
9661;SDS011;24982;52.344;12.990;2023-09-07T14:11:44;4.40;;;4.00;;
9661;SDS011;24982;52.344;12.990;2023-09-07T14:14:45;4.63;;;4.20;;
9661;SDS011;24982;52.344;12.990;2023-09-07T14:17:49;4.13;;;3.83;;
9661;SDS011;24982;52.344;12.990;2023-09-07T14:20:51;4.88;;;4.25;;
9661;SDS011;24982;52.344;12.990;2023-09-07T14:23:52;6.10;;;4.35;;
9661;SDS011;24982;52.344;12.990;2023-09-07T14:26:55;4.35;;;3.95;;
9661;SDS011;24982;52.344;12.990;2023-09-07T14:29:57;4.63;;;4.10;;
9661;SDS011;24982;52.344;12.990;2023-09-07T14:33:00;4.22;;;3.70;;
9661;SDS011;24982;52.344;12.990;2023-09-07T14:36:02;4.00;;;3.70;;
9661;SDS011;24982;52.344;12.990;2023-09-07T14:39:05;4.22;;;3.92;;
9661;SDS011;24982;52.344;12.990;2023-09-07T14:42:08;4.45;;;4.05;;
9661;SDS011;24982;52.344;12.990;2023-09-07T14:45:14;4.30;;;4.00;;
9661;SDS011;24982;52.344;12.990;2023-09-07T14:48:17;4.72;;;4.28;;
9661;SDS011;24982;52.344;12.990;2023-09-07T14:51:19;4.78;;;4.30;;
9661;SDS011;24982;52.344;12.990;2023-09-07T14:54:21;4.40;;;3.95;;
9661;SDS011;24982;52.344;12.990;2023-09-07T14:57:23;4.97;;;4.30;;
9661;SDS011;24982;52.344;12.990;2023-09-07T15:00:26;4.00;;;3.70;;
9661;SDS011;24982;52.344;12.990;2023-09-07T15:03:33;4.28;;;3.97;;
9661;SDS011;24982;52.344;12.990;2023-09-07T15:06:41;4.13;;;3.80;;
9661;SDS011;24982;52.344;12.990;2023-09-07T15:09:43;4.53;;;4.13;;
9661;SDS011;24982;52.344;12.990;2023-09-07T15:12:45;4.47;;;4.07;;
9661;SDS011;24982;52.344;12.990;2023-09-07T15:15:47;4.28;;;3.88;;
9661;SDS011;24982;52.344;12.990;2023-09-07T15:18:50;3.90;;;3.60;;
9661;SDS011;24982;52.344;12.990;2023-09-07T15:21:52;4.30;;;4.00;;
9661;SDS011;24982;52.344;12.990;2023-09-07T15:24:54;4.63;;;4.22;;
9661;SDS011;24982;52.344;12.990;2023-09-07T15:27:56;4.30;;;3.75;;
9661;SDS011;24982;52.344;12.990;2023-09-07T15:30:58;4.10;;;3.72;;
9661;SDS011;24982;52.344;12.990;2023-09-07T15:34:02;4.15;;;3.75;;
9661;SDS011;24982;52.344;12.990;2023-09-07T15:37:04;6.65;;;4.10;;
9661;SDS011;24982;52.344;12.990;2023-09-07T15:40:06;4.38;;;3.97;;
9661;SDS011;24982;52.344;12.990;2023-09-07T15:43:09;4.65;;;4.25;;
9661;SDS011;24982;52.344;12.990;2023-09-07T15:46:11;5.43;;;3.92;;
9661;SDS011;24982;52.344;12.990;2023-09-07T15:49:14;4.53;;;4.10;;
9661;SDS011;24982;52.344;12.990;2023-09-07T15:52:17;3.90;;;3.60;;
9661;SDS011;24982;52.344;12.990;2023-09-07T15:55:19;4.18;;;3.88;;
9661;SDS011;24982;52.344;12.990;2023-09-07T15:58:21;4.32;;;4.00;;
9661;SDS011;24982;52.344;12.990;2023-09-07T16:01:23;4.65;;;4.22;;
9661;SDS011;24982;52.344;12.990;2023-09-07T16:04:26;4.82;;;4.10;;
9661;SDS011;24982;52.344;12.990;2023-09-07T16:07:28;4.95;;;4.07;;
9661;SDS011;24982;52.344;12.990;2023-09-07T16:10:30;6.45;;;4.00;;
9661;SDS011;24982;52.344;12.990;2023-09-07T16:13:33;4.43;;;4.03;;
9661;SDS011;24982;52.344;12.990;2023-09-07T16:16:35;4.50;;;4.20;;
9661;SDS011;24982;52.344;12.990;2023-09-07T16:19:38;4.80;;;4.40;;
9661;SDS011;24982;52.344;12.990;2023-09-07T16:22:40;7.28;;;4.60;;
9661;SDS011;24982;52.344;12.990;2023-09-07T16:25:42;4.45;;;4.13;;
9661;SDS011;24982;52.344;12.990;2023-09-07T16:28:45;5.07;;;3.90;;
9661;SDS011;24982;52.344;12.990;2023-09-07T16:31:47;5.65;;;4.57;;
9661;SDS011;24982;52.344;12.990;2023-09-07T16:34:50;4.85;;;4.30;;
9661;SDS011;24982;52.344;12.990;2023-09-07T16:37:53;4.72;;;4.35;;
9661;SDS011;24982;52.344;12.990;2023-09-07T16:40:55;4.43;;;4.10;;
9661;SDS011;24982;52.344;12.990;2023-09-07T16:43:57;4.40;;;4.10;;
9661;SDS011;24982;52.344;12.990;2023-09-07T16:46:59;5.00;;;4.60;;
9661;SDS011;24982;52.344;12.990;2023-09-07T16:50:02;5.00;;;4.50;;
9661;SDS011;24982;52.344;12.990;2023-09-07T16:53:04;4.85;;;4.40;;
9661;SDS011;24982;52.344;12.990;2023-09-07T16:56:06;4.88;;;4.40;;
9661;SDS011;24982;52.344;12.990;2023-09-07T16:59:08;4.93;;;4.53;;
9661;SDS011;24982;52.344;12.990;2023-09-07T17:02:10;5.43;;;4.93;;
9661;SDS011;24982;52.344;12.990;2023-09-07T17:05:14;5.75;;;5.15;;
9661;SDS011;24982;52.344;12.990;2023-09-07T17:08:16;4.80;;;4.28;;
9661;SDS011;24982;52.344;12.990;2023-09-07T17:11:18;6.20;;;4.50;;
9661;SDS011;24982;52.344;12.990;2023-09-07T17:14:20;4.82;;;4.38;;
9661;SDS011;24982;52.344;12.990;2023-09-07T17:17:22;4.82;;;4.18;;
9661;SDS011;24982;52.344;12.990;2023-09-07T17:20:25;4.50;;;4.20;;
9661;SDS011;24982;52.344;12.990;2023-09-07T17:23:27;5.03;;;4.63;;
9661;SDS011;24982;52.344;12.990;2023-09-07T17:26:29;6.38;;;4.60;;
9661;SDS011;24982;52.344;12.990;2023-09-07T17:29:31;4.88;;;4.43;;
9661;SDS011;24982;52.344;12.990;2023-09-07T17:32:33;5.28;;;4.60;;
9661;SDS011;24982;52.344;12.990;2023-09-07T17:35:37;5.20;;;4.70;;
9661;SDS011;24982;52.344;12.990;2023-09-07T17:38:39;5.05;;;4.55;;
9661;SDS011;24982;52.344;12.990;2023-09-07T17:41:40;4.35;;;4.05;;
9661;SDS011;24982;52.344;12.990;2023-09-07T17:44:42;6.18;;;4.63;;
9661;SDS011;24982;52.344;12.990;2023-09-07T17:47:44;5.20;;;4.70;;
9661;SDS011;24982;52.344;12.990;2023-09-07T17:50:48;5.70;;;5.20;;
9661;SDS011;24982;52.344;12.990;2023-09-07T17:53:50;8.27;;;5.13;;
9661;SDS011;24982;52.344;12.990;2023-09-07T17:56:53;7.78;;;5.13;;
9661;SDS011;24982;52.344;12.990;2023-09-07T17:59:55;5.55;;;5.05;;
9661;SDS011;24982;52.344;12.990;2023-09-07T18:03:00;5.45;;;4.95;;
9661;SDS011;24982;52.344;12.990;2023-09-07T18:06:03;5.15;;;4.70;;
9661;SDS011;24982;52.344;12.990;2023-09-07T18:09:06;4.97;;;4.47;;
9661;SDS011;24982;52.344;12.990;2023-09-07T18:12:09;8.13;;;5.50;;
9661;SDS011;24982;52.344;12.990;2023-09-07T18:15:11;6.72;;;5.68;;
9661;SDS011;24982;52.344;12.990;2023-09-07T18:18:14;5.65;;;5.00;;
9661;SDS011;24982;52.344;12.990;2023-09-07T18:21:18;5.85;;;4.88;;
9661;SDS011;24982;52.344;12.990;2023-09-07T18:24:20;5.13;;;4.72;;
9661;SDS011;24982;52.344;12.990;2023-09-07T18:27:23;4.93;;;4.60;;
9661;SDS011;24982;52.344;12.990;2023-09-07T18:30:25;4.97;;;4.57;;
9661;SDS011;24982;52.344;12.990;2023-09-07T18:33:27;7.20;;;6.50;;
9661;SDS011;24982;52.344;12.990;2023-09-07T18:36:31;14.95;;;10.18;;
9661;SDS011;24982;52.344;12.990;2023-09-07T18:39:33;9.15;;;7.07;;